createdAt,value
2019-01-06T00:00:43.721Z,12.50
2019-01-06T00:01:43.678Z,9.80
2019-01-06T00:02:43.635Z,10.80
2019-01-06T00:03:43.595Z,11.60
2019-01-06T00:04:43.547Z,11.80
2019-01-06T00:05:43.504Z,12.00
2019-01-06T00:06:43.464Z,9.10
2019-01-06T00:07:43.419Z,10.80
2019-01-06T00:08:43.381Z,12.00
2019-01-06T00:09:43.338Z,10.10
2019-01-06T00:10:43.299Z,10.40
2019-01-06T00:11:43.256Z,9.50
2019-01-06T00:12:43.206Z,11.40
2019-01-06T00:13:43.165Z,8.90
2019-01-06T00:14:43.125Z,8.90
2019-01-06T00:15:43.084Z,10.80
2019-01-06T00:16:43.035Z,9.20
2019-01-06T00:17:42.995Z,8.20
2019-01-06T00:18:42.956Z,10.00
2019-01-06T00:19:42.908Z,8.20
2019-01-06T00:20:42.872Z,9.90
2019-01-06T00:21:42.827Z,8.30
2019-01-06T00:22:42.784Z,9.70
2019-01-06T00:23:42.744Z,8.30
2019-01-06T00:24:42.695Z,8.20
2019-01-06T00:25:42.658Z,9.10
2019-01-06T00:26:42.613Z,9.20
2019-01-06T00:27:42.569Z,8.10
2019-01-06T00:28:42.530Z,8.60
2019-01-06T00:29:42.487Z,8.80
2019-01-06T00:30:42.443Z,8.80
2019-01-06T00:31:42.401Z,9.50
2019-01-06T00:32:42.362Z,7.90
2019-01-06T00:33:42.318Z,10.50
2019-01-06T00:34:42.275Z,13.00
2019-01-06T00:35:42.298Z,8.90
2019-01-06T00:36:42.186Z,8.50
2019-01-06T00:37:42.145Z,7.80
2019-01-06T00:38:42.102Z,7.80
2019-01-06T00:39:42.059Z,8.40
2019-01-06T00:40:42.021Z,9.90
2019-01-06T00:41:41.977Z,8.80
2019-01-06T00:42:41.935Z,8.80
2019-01-06T00:43:41.894Z,8.10
2019-01-06T00:44:41.844Z,11.00
2019-01-06T00:45:41.805Z,10.70
2019-01-06T00:46:41.764Z,8.30
2019-01-06T00:47:41.724Z,8.90
2019-01-06T00:48:41.675Z,9.20
2019-01-06T00:49:41.635Z,11.20
2019-01-06T00:50:41.592Z,10.90
2019-01-06T00:51:41.548Z,10.10
2019-01-06T00:52:41.511Z,10.50
2019-01-06T00:53:41.467Z,11.80
2019-01-06T00:54:41.425Z,9.30
2019-01-06T00:55:41.384Z,11.40
2019-01-06T00:56:41.334Z,9.20
2019-01-06T00:57:41.295Z,10.40
2019-01-06T00:58:41.294Z,11.30
2019-01-06T00:59:41.207Z,10.90
2019-01-06T01:00:41.172Z,9.40
2019-01-06T01:01:41.127Z,9.30
2019-01-06T01:02:41.083Z,12.70
2019-01-06T01:03:41.038Z,9.40
2019-01-06T01:04:41.001Z,11.40
2019-01-06T01:05:40.955Z,10.20
2019-01-06T01:06:40.914Z,13.10
2019-01-06T01:07:40.875Z,10.20
2019-01-06T01:08:40.823Z,11.10
2019-01-06T01:09:40.784Z,10.80
2019-01-06T01:10:40.742Z,12.60
2019-01-06T01:11:40.697Z,12.40
2019-01-06T01:12:40.664Z,8.70
2019-01-06T01:13:40.616Z,10.00
2019-01-06T01:14:40.572Z,10.90
2019-01-06T01:15:40.531Z,12.80
2019-01-06T01:16:40.484Z,10.80
2019-01-06T01:17:40.444Z,11.80
2019-01-06T01:18:40.403Z,10.80
2019-01-06T01:19:41.718Z,11.50
2019-01-06T01:20:40.316Z,12.10
2019-01-06T01:21:40.273Z,11.10
2019-01-06T01:22:40.231Z,12.10
2019-01-06T01:23:40.187Z,11.40
2019-01-06T01:24:40.149Z,13.00
2019-01-06T01:25:40.104Z,11.30
2019-01-06T01:26:48.095Z,10.90
2019-01-06T01:27:40.022Z,10.30
2019-01-06T01:28:39.975Z,11.30
2019-01-06T01:29:39.935Z,10.90
2019-01-06T01:30:39.892Z,10.00
2019-01-06T01:31:39.846Z,11.90
2019-01-06T01:32:39.890Z,10.80
2019-01-06T01:33:39.764Z,12.20
2019-01-06T01:34:39.720Z,11.10
2019-01-06T01:35:39.679Z,12.70
2019-01-06T01:36:39.638Z,12.40
2019-01-06T01:37:39.594Z,15.60
2019-01-06T01:38:39.551Z,13.00
2019-01-06T01:39:39.514Z,11.60
2019-01-06T01:40:39.465Z,13.20
2019-01-06T01:41:39.421Z,14.10
2019-01-06T01:42:39.379Z,13.10
2019-01-06T01:43:39.335Z,16.40
2019-01-06T01:44:39.298Z,15.30
2019-01-06T01:45:39.256Z,13.50
2019-01-06T01:46:39.211Z,15.80
2019-01-06T01:47:39.173Z,16.70
2019-01-06T01:48:39.123Z,17.80
2019-01-06T01:49:39.081Z,15.90
2019-01-06T01:50:39.041Z,20.30
2019-01-06T01:51:39.000Z,17.00
2019-01-06T01:52:38.950Z,18.60
2019-01-06T01:53:38.912Z,22.00
2019-01-06T01:54:38.867Z,18.60
2019-01-06T01:55:38.823Z,18.80
2019-01-06T01:56:38.788Z,17.50
2019-01-06T01:57:38.741Z,18.70
2019-01-06T01:58:38.699Z,18.10
2019-01-06T01:59:38.662Z,18.00
2019-01-06T02:00:38.611Z,20.10
2019-01-06T02:01:38.570Z,21.50
2019-01-06T02:02:38.527Z,22.10
2019-01-06T02:03:38.483Z,23.00
2019-01-06T02:04:38.445Z,24.50
2019-01-06T02:05:38.402Z,21.80
2019-01-06T02:06:38.360Z,21.70
2019-01-06T02:07:38.312Z,20.70
2019-01-06T02:08:38.331Z,23.70
2019-01-06T02:09:38.230Z,21.80
2019-01-06T02:10:38.188Z,22.90
2019-01-06T02:11:38.147Z,21.50
2019-01-06T02:12:38.100Z,25.60
2019-01-06T02:13:38.058Z,18.40
2019-01-06T02:14:38.019Z,23.50
2019-01-06T02:15:37.977Z,22.80
2019-01-06T02:16:37.928Z,23.00
2019-01-06T02:17:37.887Z,23.00
2019-01-06T02:18:37.844Z,23.10
2019-01-06T02:19:37.800Z,23.30
2019-01-06T02:20:37.766Z,21.80
2019-01-06T02:21:37.720Z,21.20
2019-01-06T02:22:37.674Z,24.40
2019-01-06T02:23:37.629Z,22.70
2019-01-06T02:24:37.596Z,23.20
2019-01-06T02:25:37.547Z,22.80
2019-01-06T02:26:37.506Z,21.50
2019-01-06T02:27:37.466Z,26.90
2019-01-06T02:28:37.415Z,21.70
2019-01-06T02:29:37.377Z,21.00
2019-01-06T02:30:37.333Z,22.10
2019-01-06T02:31:37.289Z,18.50
2019-01-06T02:32:37.255Z,20.90
2019-01-06T02:33:37.210Z,19.20
2019-01-06T02:34:37.166Z,19.20
2019-01-06T02:35:37.124Z,19.30
2019-01-06T02:36:37.075Z,18.90
2019-01-06T02:37:37.033Z,19.60
2019-01-06T02:38:37.012Z,19.00
2019-01-06T02:39:36.954Z,19.50
2019-01-06T02:40:36.904Z,19.10
2019-01-06T02:41:36.865Z,18.00
2019-01-06T02:42:36.821Z,19.30
2019-01-06T02:43:36.777Z,21.50
2019-01-06T02:44:36.740Z,19.00
2019-01-06T02:45:36.695Z,17.00
2019-01-06T02:46:36.652Z,19.60
2019-01-06T02:47:36.611Z,17.20
2019-01-06T02:48:36.564Z,16.70
2019-01-06T02:49:36.522Z,15.90
2019-01-06T02:50:36.479Z,18.80
2019-01-06T02:51:36.434Z,19.40
2019-01-06T02:52:36.398Z,16.70
2019-01-06T02:53:36.352Z,16.80
2019-01-06T02:54:36.309Z,16.50
2019-01-06T02:55:36.266Z,15.40
2019-01-06T02:56:36.226Z,16.60
2019-01-06T02:57:36.181Z,17.30
2019-01-06T02:58:36.141Z,15.00
2019-01-06T02:59:36.105Z,18.00
2019-01-06T03:00:36.051Z,18.00
2019-01-06T03:01:36.008Z,17.70
2019-01-06T03:02:35.967Z,18.30
2019-01-06T03:03:35.920Z,14.50
2019-01-06T03:04:35.889Z,17.10
2019-01-06T03:05:35.839Z,16.90
2019-01-06T03:06:35.798Z,15.20
2019-01-06T03:07:35.756Z,14.90
2019-01-06T03:08:35.708Z,15.80
2019-01-06T03:09:35.668Z,15.90
2019-01-06T03:10:35.628Z,15.20
2019-01-06T03:11:35.588Z,15.20
2019-01-06T03:12:35.540Z,13.50
2019-01-06T03:13:35.496Z,15.00
2019-01-06T03:14:35.454Z,13.50
2019-01-06T03:15:35.409Z,15.80
2019-01-06T03:16:35.368Z,14.70
2019-01-06T03:17:35.341Z,14.10
2019-01-06T03:18:35.288Z,12.80
2019-01-06T03:19:35.244Z,13.80
2019-01-06T03:20:35.197Z,12.90
2019-01-06T03:21:35.153Z,13.30
2019-01-06T03:22:35.111Z,15.00
2019-01-06T03:23:35.068Z,13.70
2019-01-06T03:24:35.030Z,11.70
2019-01-06T03:25:34.985Z,12.10
2019-01-06T03:26:34.940Z,15.00
2019-01-06T03:27:34.895Z,13.30
2019-01-06T03:28:34.859Z,13.20
2019-01-06T03:29:34.816Z,12.40
2019-01-06T03:30:34.810Z,11.40
2019-01-06T03:31:34.745Z,11.60
2019-01-06T03:32:34.681Z,11.50
2019-01-06T03:33:34.641Z,12.50
2019-01-06T03:34:34.597Z,11.30
2019-01-06T03:35:34.554Z,12.50
2019-01-06T03:36:34.515Z,12.50
2019-01-06T03:37:34.472Z,10.70
2019-01-06T03:38:34.442Z,11.90
2019-01-06T03:39:34.388Z,12.00
2019-01-06T03:40:34.338Z,13.30
2019-01-06T03:41:34.310Z,10.40
2019-01-06T03:42:34.260Z,12.10
2019-01-06T03:43:34.218Z,10.90
2019-01-06T03:44:34.172Z,10.90
2019-01-06T03:45:34.127Z,11.30
2019-01-06T03:46:34.087Z,12.40
2019-01-06T03:47:34.042Z,11.40
2019-01-06T03:48:34.003Z,10.70
2019-01-06T03:49:33.961Z,11.80
2019-01-06T03:50:33.915Z,13.00
2019-01-06T03:51:33.887Z,12.30
2019-01-06T04:06:42.339Z,8.70
2019-01-06T04:07:42.256Z,9.10
2019-01-06T04:08:42.203Z,9.70
2019-01-06T04:09:42.157Z,11.20
2019-01-06T04:10:42.116Z,11.40
2019-01-06T04:11:42.068Z,10.30
2019-01-06T04:12:42.028Z,11.00
2019-01-06T04:13:41.979Z,10.60
2019-01-06T04:14:41.938Z,9.90
2019-01-06T04:15:41.893Z,11.30
2019-01-06T04:16:41.843Z,9.90
2019-01-06T04:17:41.819Z,10.00
2019-01-06T04:18:41.757Z,10.20
2019-01-06T04:19:41.712Z,10.50
2019-01-06T04:20:41.681Z,8.90
2019-01-06T04:21:41.627Z,9.70
2019-01-06T04:22:41.582Z,11.20
2019-01-06T04:23:41.536Z,9.80
2019-01-06T04:24:41.501Z,10.20
2019-01-06T04:25:41.456Z,9.00
2019-01-06T04:26:41.410Z,9.10
2019-01-06T04:27:41.369Z,9.20
2019-01-06T04:28:41.322Z,8.80
2019-01-06T04:29:41.279Z,7.40
2019-01-06T04:30:41.238Z,8.40
2019-01-06T04:31:41.191Z,8.70
2019-01-06T04:32:41.155Z,8.00
2019-01-06T04:33:41.109Z,7.80
2019-01-06T04:34:41.066Z,9.40
2019-01-06T04:35:41.033Z,8.30
2019-01-06T04:36:41.019Z,7.40
2019-01-06T04:37:40.935Z,8.70
2019-01-06T04:38:40.895Z,8.20
2019-01-06T04:39:40.855Z,7.00
2019-01-06T04:40:40.804Z,7.20
2019-01-06T04:41:40.763Z,7.40
2019-01-06T04:42:40.720Z,8.20
2019-01-06T04:43:40.676Z,7.80
2019-01-06T04:44:40.638Z,6.90
2019-01-06T04:45:40.593Z,7.90
2019-01-06T04:46:40.551Z,7.50
2019-01-06T04:47:40.510Z,7.90
2019-01-06T04:48:40.463Z,6.70
2019-01-06T04:49:40.420Z,7.30
2019-01-06T04:50:40.378Z,6.90
2019-01-06T04:51:40.332Z,7.70
2019-01-06T04:52:40.298Z,6.80
2019-01-06T04:53:40.250Z,6.40
2019-01-06T04:54:40.207Z,6.90
2019-01-06T04:55:40.164Z,7.10
2019-01-06T04:56:40.125Z,6.50
2019-01-06T04:57:40.079Z,6.80
2019-01-06T04:58:40.037Z,6.70
2019-01-06T04:59:39.996Z,8.20
2019-01-06T05:00:39.948Z,6.50
2019-01-06T05:01:39.907Z,7.00
2019-01-06T05:02:39.864Z,7.20
2019-01-06T05:03:39.819Z,9.00
2019-01-06T05:04:39.782Z,7.00
2019-01-06T05:05:39.738Z,5.60
2019-01-06T05:06:39.695Z,6.80
2019-01-06T05:07:39.659Z,6.70
2019-01-06T05:08:39.606Z,6.00
2019-01-06T05:09:39.564Z,6.00
2019-01-06T05:10:39.530Z,6.60
2019-01-06T05:11:39.483Z,6.40
2019-01-06T05:12:39.435Z,6.40
2019-01-06T05:13:39.395Z,6.20
2019-01-06T05:14:39.353Z,6.70
2019-01-06T05:15:39.305Z,6.30
2019-01-06T05:16:39.270Z,7.70
2019-01-06T05:17:39.224Z,6.30
2019-01-06T05:18:39.185Z,6.80
2019-01-06T05:19:39.141Z,7.40
2019-01-06T05:20:39.093Z,7.80
2019-01-06T05:21:39.054Z,8.20
2019-01-06T05:22:39.009Z,6.90
2019-01-06T05:23:38.966Z,7.40
2019-01-06T05:24:38.928Z,8.10
2019-01-06T05:25:38.884Z,7.80
2019-01-06T05:26:38.839Z,8.20
2019-01-06T05:27:38.793Z,8.00
2019-01-06T05:28:38.760Z,7.80
2019-01-06T05:29:38.719Z,8.50
2019-01-06T05:30:38.670Z,9.90
2019-01-06T05:31:38.632Z,8.60
2019-01-06T05:32:38.581Z,10.20
2019-01-06T05:33:38.540Z,8.40
2019-01-06T05:34:38.497Z,9.20
2019-01-06T05:35:38.453Z,9.70
2019-01-06T05:36:38.416Z,9.40
2019-01-06T05:37:38.371Z,8.70
2019-01-06T05:38:38.328Z,9.30
2019-01-06T05:39:38.288Z,8.40
2019-01-06T05:40:38.253Z,9.00
2019-01-06T05:41:38.197Z,11.30
2019-01-06T05:42:38.158Z,8.00
2019-01-06T05:43:38.116Z,11.00
2019-01-06T05:44:38.068Z,8.90
2019-01-06T05:45:38.033Z,7.80
2019-01-06T05:46:37.984Z,7.70
2019-01-06T05:47:37.940Z,7.00
2019-01-06T05:48:37.906Z,7.20
2019-01-06T05:49:37.863Z,7.00
2019-01-06T05:50:37.816Z,8.60
2019-01-06T05:51:37.776Z,8.30
2019-01-06T05:52:37.731Z,6.40
2019-01-06T05:53:37.686Z,7.00
2019-01-06T05:54:37.644Z,7.10
2019-01-06T05:55:37.600Z,7.30
2019-01-06T05:56:37.563Z,7.40
2019-01-06T05:57:37.518Z,7.00
2019-01-06T05:58:37.473Z,5.90
2019-01-06T05:59:37.428Z,7.40
2019-01-06T06:00:37.393Z,6.40
2019-01-06T06:01:37.348Z,7.40
2019-01-06T06:02:37.304Z,7.00
2019-01-06T06:03:37.264Z,6.00
2019-01-06T06:04:37.215Z,8.30
2019-01-06T06:05:37.174Z,8.50
2019-01-06T06:06:37.132Z,7.70
2019-01-06T06:07:37.087Z,7.00
2019-01-06T06:08:37.052Z,7.70
2019-01-06T06:09:37.006Z,7.90
2019-01-06T06:10:36.964Z,8.50
2019-01-06T06:11:36.925Z,9.20
2019-01-06T06:12:36.875Z,8.20
2019-01-06T06:13:36.834Z,8.90
2019-01-06T06:14:36.796Z,8.80
2019-01-06T06:15:36.753Z,8.30
2019-01-06T06:16:36.707Z,8.80
2019-01-06T06:17:36.663Z,10.90
2019-01-06T06:18:36.622Z,10.00
2019-01-06T06:19:36.577Z,8.90
2019-01-06T06:20:36.542Z,8.90
2019-01-06T06:21:36.496Z,8.70
2019-01-06T06:22:36.454Z,9.30
2019-01-06T06:23:36.414Z,8.60
2019-01-06T06:24:36.365Z,8.40
2019-01-06T06:25:36.324Z,8.70
2019-01-06T06:26:36.280Z,7.80
2019-01-06T06:27:36.237Z,8.70
2019-01-06T06:28:36.199Z,8.80
2019-01-06T06:29:36.155Z,9.10
2019-01-06T06:30:36.111Z,10.00
2019-01-06T06:31:36.065Z,9.10
2019-01-06T06:32:36.029Z,7.80
2019-01-06T06:33:35.987Z,8.20
2019-01-06T06:34:35.942Z,7.70
2019-01-06T06:35:35.902Z,9.40
2019-01-06T06:36:35.852Z,9.20
2019-01-06T06:37:35.815Z,8.20
2019-01-06T06:38:35.770Z,9.40
2019-01-06T06:39:35.726Z,7.70
2019-01-06T06:40:35.689Z,9.30
2019-01-06T06:41:35.643Z,7.80
2019-01-06T06:42:35.602Z,8.90
2019-01-06T06:43:35.562Z,7.40
2019-01-06T06:44:35.519Z,7.90
2019-01-06T06:45:35.477Z,7.70
2019-01-06T06:46:35.430Z,9.00
2019-01-06T06:47:35.390Z,9.40
2019-01-06T06:48:35.342Z,7.90
2019-01-06T06:49:35.300Z,7.90
2019-01-06T06:50:35.259Z,8.40
2019-01-06T06:51:35.214Z,8.70
2019-01-06T06:52:35.236Z,8.70
2019-01-06T06:53:35.132Z,7.90
2019-01-06T06:54:35.090Z,7.50
2019-01-06T06:55:35.053Z,8.10
2019-01-06T06:56:35.001Z,8.30
2019-01-06T06:57:34.960Z,7.90
2019-01-06T06:58:34.918Z,8.40
2019-01-06T06:59:34.874Z,7.80
2019-01-06T07:00:34.837Z,7.80
2019-01-06T07:01:34.792Z,9.20
2019-01-06T07:02:34.747Z,8.40
2019-01-06T07:03:34.703Z,9.70
2019-01-06T07:04:34.667Z,9.60
2019-01-06T07:05:34.624Z,8.50
2019-01-06T07:06:34.580Z,8.70
2019-01-06T07:07:34.541Z,10.80
2019-01-06T07:08:34.491Z,9.90
2019-01-06T07:09:34.449Z,10.30
2019-01-06T07:10:34.407Z,11.80
2019-01-06T07:11:34.363Z,12.70
2019-01-06T07:12:34.327Z,12.00
2019-01-06T07:13:34.281Z,11.10
2019-01-06T07:14:34.239Z,10.40
2019-01-06T07:15:34.200Z,10.50
2019-01-06T07:16:34.152Z,10.90
2019-01-06T07:17:34.109Z,12.10
2019-01-06T07:18:34.117Z,12.10
2019-01-06T07:19:34.028Z,12.90
2019-01-06T07:20:33.980Z,13.70
2019-01-06T07:21:33.938Z,12.40
2019-01-06T07:22:33.893Z,13.40
2019-01-06T07:23:33.851Z,15.00
2019-01-06T07:24:33.846Z,12.70
2019-01-06T07:25:33.769Z,13.40
2019-01-06T07:26:33.728Z,15.40
2019-01-06T07:27:33.686Z,15.20
2019-01-06T07:28:33.638Z,12.70
2019-01-06T07:29:33.598Z,17.40
2019-01-06T07:30:33.555Z,14.70
2019-01-06T07:31:33.510Z,17.10
2019-01-06T07:32:33.474Z,14.80
2019-01-06T07:33:33.429Z,16.00
2019-01-06T07:34:33.382Z,16.60
2019-01-06T07:35:33.340Z,18.10
2019-01-06T07:36:33.302Z,18.20
2019-01-06T07:37:33.256Z,16.40
2019-01-06T07:38:33.214Z,17.50
2019-01-06T07:39:33.174Z,17.30
2019-01-06T07:40:33.130Z,19.00
2019-01-06T07:41:33.087Z,19.00
2019-01-06T07:42:33.042Z,19.60
2019-01-06T07:43:32.997Z,18.30
2019-01-06T07:44:32.961Z,18.90
2019-01-06T07:45:32.915Z,19.80
2019-01-06T07:46:32.872Z,20.70
2019-01-06T07:47:32.833Z,19.30
2019-01-06T07:48:32.783Z,20.00
2019-01-06T07:49:32.742Z,19.90
2019-01-06T07:50:32.701Z,22.90
2019-01-06T07:51:32.664Z,21.00
2019-01-06T07:52:32.612Z,20.40
2019-01-06T07:53:32.570Z,24.90
2019-01-06T07:54:32.528Z,22.30
2019-01-06T07:55:32.483Z,34.80
2019-01-06T07:56:32.448Z,49.60
2019-01-06T07:57:32.409Z,28.00
2019-01-06T07:58:32.359Z,26.40
2019-01-06T07:59:32.320Z,21.90
2019-01-06T08:00:32.271Z,24.00
2019-01-06T08:01:32.229Z,21.70
2019-01-06T08:02:32.188Z,20.40
2019-01-06T08:03:32.142Z,21.70
2019-01-06T08:04:32.106Z,22.00
2019-01-06T08:05:32.060Z,21.80
2019-01-06T08:06:32.017Z,21.40
2019-01-06T08:07:31.971Z,22.00
2019-01-06T08:08:31.936Z,21.40
2019-01-06T08:09:31.890Z,22.60
2019-01-06T08:10:31.910Z,22.80
2019-01-06T08:11:31.807Z,22.70
2019-01-06T08:12:31.758Z,23.10
2019-01-06T08:13:31.717Z,21.20
2019-01-06T08:14:31.674Z,21.10
2019-01-06T08:15:31.629Z,21.90
2019-01-06T08:16:31.593Z,21.80
2019-01-06T08:17:31.548Z,21.60
2019-01-06T08:18:31.512Z,21.70
2019-01-06T08:19:31.465Z,23.50
2019-01-06T08:20:32.855Z,21.90
2019-01-06T08:21:31.378Z,24.60
2019-01-06T08:22:31.414Z,22.10
2019-01-06T08:23:31.295Z,21.90
2019-01-06T08:24:31.248Z,22.50
2019-01-06T08:25:31.205Z,22.50
2019-01-06T08:26:31.163Z,24.00
2019-01-06T08:27:31.120Z,20.30
2019-01-06T08:28:31.082Z,23.30
2019-01-06T08:29:31.037Z,23.50
2019-01-06T08:30:30.994Z,22.00
2019-01-06T08:31:30.954Z,25.50
2019-01-06T08:32:30.906Z,24.60
2019-01-06T08:33:30.863Z,24.80
2019-01-06T08:34:30.828Z,26.20
2019-01-06T08:35:30.778Z,24.80
2019-01-06T08:36:30.740Z,22.70
2019-01-06T08:37:30.697Z,22.70
2019-01-06T08:38:30.651Z,22.40
2019-01-06T08:39:30.606Z,19.50
2019-01-06T08:40:30.571Z,19.40
2019-01-06T08:41:30.524Z,20.00
2019-01-06T08:42:30.484Z,19.60
2019-01-06T08:43:30.442Z,20.00
2019-01-06T08:44:30.394Z,42.20
2019-01-06T08:45:30.351Z,29.10
2019-01-06T08:46:30.309Z,18.40
2019-01-06T08:47:30.264Z,19.30
2019-01-06T08:48:30.228Z,18.00
2019-01-06T08:49:30.183Z,16.70
2019-01-06T08:50:30.141Z,16.70
2019-01-06T08:51:30.099Z,16.00
2019-01-06T08:52:30.051Z,16.00
2019-01-06T08:53:30.011Z,14.50
2019-01-06T08:54:29.969Z,14.80
2019-01-06T08:55:29.928Z,13.80
2019-01-06T08:56:29.881Z,15.30
2019-01-06T08:57:29.839Z,13.90
2019-01-06T08:58:29.797Z,13.60
2019-01-06T08:59:29.752Z,12.80
2019-01-06T09:00:29.715Z,15.20
2019-01-06T09:01:29.670Z,13.80
2019-01-06T09:02:29.627Z,12.60
2019-01-06T09:03:29.587Z,12.90
2019-01-06T09:04:29.541Z,13.80
2019-01-06T09:05:29.498Z,17.00
2019-01-06T09:06:29.454Z,13.70
2019-01-06T09:07:29.410Z,14.50
2019-01-06T09:08:29.374Z,14.90
2019-01-06T09:09:29.328Z,16.50
2019-01-06T09:10:29.285Z,13.20
2019-01-06T09:11:29.240Z,13.00
2019-01-06T09:12:29.203Z,12.80
2019-01-06T09:13:29.157Z,13.90
2019-01-06T09:14:29.117Z,12.60
2019-01-06T09:15:29.076Z,11.00
2019-01-06T09:16:29.028Z,12.00
2019-01-06T09:17:28.987Z,10.00
2019-01-06T09:18:28.942Z,12.10
2019-01-06T09:19:28.901Z,11.00
2019-01-06T09:20:28.862Z,13.10
2019-01-06T09:21:28.821Z,14.90
2019-01-06T09:22:28.778Z,16.70
2019-01-06T09:23:28.733Z,17.00
2019-01-06T09:24:28.690Z,10.70
2019-01-06T09:25:28.647Z,9.20
2019-01-06T09:26:28.608Z,9.60
2019-01-06T09:27:28.563Z,9.80
2019-01-06T09:28:28.558Z,10.90
2019-01-06T09:29:28.474Z,11.10
2019-01-06T09:30:28.432Z,9.40
2019-01-06T09:31:28.391Z,9.00
2019-01-06T09:32:28.351Z,9.70
2019-01-06T09:33:28.374Z,9.70
2019-01-06T09:34:28.268Z,11.40
2019-01-06T09:35:28.225Z,10.60
2019-01-06T09:36:28.185Z,10.40
2019-01-06T09:37:28.135Z,9.50
2019-01-06T09:38:28.092Z,9.60
2019-01-06T09:39:28.052Z,10.00
2019-01-06T09:40:28.012Z,9.10
2019-01-06T09:41:27.970Z,7.80
2019-01-06T09:42:27.923Z,9.10
2019-01-06T09:43:27.882Z,9.40
2019-01-06T09:44:27.844Z,8.80
2019-01-06T09:45:27.802Z,8.90
2019-01-06T09:46:27.759Z,8.40
2019-01-06T09:47:27.715Z,9.40
2019-01-06T09:48:27.670Z,7.10
2019-01-06T09:49:27.625Z,8.40
2019-01-06T09:50:27.583Z,7.70
2019-01-06T09:51:27.543Z,8.90
2019-01-06T09:52:27.502Z,7.80
2019-01-06T09:53:27.463Z,8.50
2019-01-06T10:20:04.962Z,7.30
2019-01-06T10:21:04.884Z,7.00
2019-01-06T10:22:04.847Z,8.60
2019-01-06T10:23:04.799Z,8.50
2019-01-06T10:24:05.648Z,8.00
2019-01-06T10:25:04.709Z,8.00
2019-01-06T10:26:04.662Z,7.80
2019-01-06T10:27:04.617Z,8.60
2019-01-06T10:28:04.575Z,9.60
2019-01-06T10:29:04.563Z,10.00
2019-01-06T10:30:04.538Z,8.40
2019-01-06T10:31:04.450Z,10.40
2019-01-06T10:33:47.545Z,8.20
2019-01-06T10:34:47.471Z,7.30
2019-01-06T10:35:47.425Z,7.50
2019-01-06T10:36:47.389Z,8.10
2019-01-06T10:37:47.343Z,8.70
2019-01-06T10:38:47.300Z,9.30
2019-01-06T10:39:47.261Z,7.40
2019-01-06T10:40:47.211Z,7.60
2019-01-06T10:41:47.174Z,7.80
2019-01-06T10:42:47.127Z,7.80
2019-01-06T10:43:47.085Z,8.40
2019-01-06T10:44:47.046Z,9.00
2019-01-06T10:45:47.001Z,7.40
2019-01-06T10:46:46.958Z,7.80
2019-01-06T10:47:46.915Z,7.30
2019-01-06T10:48:46.884Z,6.10
2019-01-06T10:49:46.833Z,9.40
2019-01-06T10:50:46.788Z,8.50
2019-01-06T10:51:46.751Z,9.50
2019-01-06T10:52:46.700Z,8.80
2019-01-06T10:53:46.662Z,7.10
2019-01-06T10:54:46.617Z,9.40
2019-01-06T10:55:46.573Z,7.30
2019-01-06T10:56:46.538Z,6.80
2019-01-06T10:57:46.493Z,8.10
2019-01-06T10:58:46.451Z,7.30
2019-01-06T10:59:46.410Z,8.00
2019-01-06T11:00:46.362Z,8.10
2019-01-06T11:01:46.324Z,6.50
2019-01-06T11:02:46.281Z,7.80
2019-01-06T11:03:46.243Z,6.50
2019-01-06T11:04:46.194Z,8.00
2019-01-06T11:05:46.153Z,7.10
2019-01-06T11:06:46.109Z,6.70
2019-01-06T11:07:46.066Z,8.30
2019-01-06T11:08:46.031Z,8.30
2019-01-06T11:09:45.987Z,8.50
2019-01-06T11:10:45.945Z,8.00
2019-01-06T11:11:45.902Z,9.50
2019-01-06T11:12:45.857Z,8.50
2019-01-06T11:13:45.815Z,7.90
2019-01-06T11:14:45.778Z,7.20
2019-01-06T11:15:45.732Z,7.90
2019-01-06T11:16:45.693Z,8.20
2019-01-06T11:17:45.652Z,7.80
2019-01-06T11:18:45.602Z,7.50
2019-01-06T11:19:45.561Z,6.70
2019-01-06T11:20:45.522Z,6.60
2019-01-06T11:21:45.481Z,6.90
2019-01-06T11:22:45.439Z,6.70
2019-01-06T11:23:45.397Z,6.10
2019-01-06T11:24:45.359Z,6.50
2019-01-06T11:25:45.306Z,6.40
2019-01-06T11:26:45.264Z,6.10
2019-01-06T11:27:45.225Z,6.70
2019-01-06T11:28:45.187Z,8.80
2019-01-06T11:29:45.145Z,6.30
2019-01-06T11:30:45.100Z,6.80
2019-01-06T11:31:45.059Z,7.60
2019-01-06T11:32:45.015Z,7.40
2019-01-06T11:33:44.970Z,7.00
2019-01-06T11:34:44.933Z,7.50
2019-01-06T11:35:44.890Z,7.10
2019-01-06T11:36:44.846Z,7.80
2019-01-06T11:37:44.802Z,6.90
2019-01-06T11:38:44.759Z,6.70
2019-01-06T11:39:44.720Z,6.50
2019-01-06T11:40:44.679Z,7.10
2019-01-06T11:41:44.641Z,7.90
2019-01-06T11:42:44.597Z,6.80
2019-01-06T11:43:44.553Z,7.40
2019-01-06T11:44:44.511Z,6.90
2019-01-06T11:45:44.466Z,6.80
2019-01-06T11:46:44.423Z,6.20
2019-01-06T11:47:44.385Z,7.00
2019-01-06T11:48:44.343Z,8.80
2019-01-06T11:49:44.303Z,7.50
2019-01-06T11:50:44.254Z,7.50
2019-01-06T11:51:44.214Z,6.10
2019-01-06T11:52:44.175Z,7.70
2019-01-06T11:53:44.135Z,6.50
2019-01-06T11:54:44.093Z,8.80
2019-01-06T11:55:44.070Z,7.20
2019-01-06T11:56:44.004Z,6.20
2019-01-06T11:57:43.961Z,6.80
2019-01-06T11:58:43.920Z,7.40
2019-01-06T11:59:43.892Z,6.70
2019-01-06T12:00:43.839Z,6.90
2019-01-06T12:01:43.804Z,5.70
2019-01-06T12:02:43.756Z,6.40
2019-01-06T12:03:43.715Z,6.40
2019-01-06T12:04:43.670Z,6.20
2019-01-06T12:05:43.626Z,5.50
2019-01-06T12:06:43.597Z,5.30
2019-01-06T12:07:43.546Z,5.90
2019-01-06T12:08:43.504Z,5.20
2019-01-06T12:09:43.457Z,6.40
2019-01-06T12:10:43.418Z,5.90
2019-01-06T12:11:43.374Z,5.70
2019-01-06T12:12:43.334Z,6.50
2019-01-06T12:13:43.296Z,5.90
2019-01-06T12:14:43.255Z,6.40
2019-01-06T12:15:43.210Z,6.80
2019-01-06T12:16:43.167Z,6.80
2019-01-06T12:17:43.123Z,7.00
2019-01-06T12:18:43.079Z,6.30
2019-01-06T12:19:43.040Z,6.60
2019-01-06T12:20:43.000Z,5.90
2019-01-06T12:21:42.961Z,5.30
2019-01-06T12:22:42.911Z,6.70
2019-01-06T12:23:42.871Z,6.60
2019-01-06T12:24:42.833Z,8.20
2019-01-06T12:25:42.794Z,5.60
2019-01-06T12:26:42.749Z,7.70
2019-01-06T12:27:42.705Z,7.30
2019-01-06T12:28:42.662Z,7.10
2019-01-06T12:29:42.620Z,6.20
2019-01-06T12:30:42.578Z,6.80
2019-01-06T12:31:42.535Z,7.70
2019-01-06T12:32:42.495Z,7.40
2019-01-06T12:33:42.492Z,7.50
2019-01-06T12:34:42.413Z,7.20
2019-01-06T12:35:42.372Z,7.70
2019-01-06T12:36:42.329Z,8.00
2019-01-06T12:37:42.283Z,6.60
2019-01-06T12:38:42.246Z,7.30
2019-01-06T12:39:42.204Z,7.90
2019-01-06T12:40:42.159Z,7.50
2019-01-06T12:41:42.114Z,10.60
2019-01-06T12:42:42.073Z,7.90
2019-01-06T12:43:42.032Z,9.00
2019-01-06T12:44:44.861Z,8.10
2019-01-06T12:45:41.952Z,11.70
2019-01-06T12:46:41.914Z,8.40
2019-01-06T12:47:41.867Z,9.30
2019-01-06T12:48:41.821Z,9.50
2019-01-06T12:49:41.778Z,10.10
2019-01-06T12:50:41.739Z,11.50
2019-01-06T12:51:43.696Z,10.70
2019-01-06T12:52:41.658Z,10.40
2019-01-06T12:53:41.616Z,10.60
2019-01-06T12:54:41.567Z,11.30
2019-01-06T12:55:41.527Z,11.30
2019-01-06T12:56:41.505Z,10.80
2019-01-06T12:57:44.508Z,11.20
2019-01-06T12:58:41.408Z,10.70
2019-01-06T12:59:41.362Z,12.20
2019-01-06T13:00:41.320Z,11.70
2019-01-06T13:01:41.281Z,12.30
2019-01-06T13:02:41.232Z,11.70
2019-01-06T13:03:41.192Z,12.40
2019-01-06T13:04:41.152Z,11.00
2019-01-06T13:05:41.113Z,10.60
2019-01-06T13:06:41.071Z,10.90
2019-01-06T13:07:41.025Z,12.00
2019-01-06T13:08:40.999Z,12.60
2019-01-06T13:09:40.938Z,12.60
2019-01-06T13:10:40.902Z,11.60
2019-01-06T13:11:40.858Z,11.50
2019-01-06T13:12:40.817Z,11.30
2019-01-06T13:13:40.771Z,13.10
2019-01-06T13:14:40.728Z,10.70
2019-01-06T13:15:40.688Z,12.60
2019-01-06T13:16:40.649Z,12.30
2019-01-06T13:17:40.614Z,12.70
2019-01-06T13:18:40.564Z,13.60
2019-01-06T13:19:40.570Z,13.30
2019-01-06T13:20:40.478Z,18.30
2019-01-06T13:21:40.435Z,22.30
2019-01-06T13:22:40.392Z,17.10
2019-01-06T13:23:40.351Z,12.90
2019-01-06T13:24:40.313Z,14.60
2019-01-06T13:25:40.272Z,12.20
2019-01-06T13:26:40.223Z,13.20
2019-01-06T13:27:40.184Z,14.80
2019-01-06T13:28:40.147Z,14.20
2019-01-06T13:29:40.103Z,15.00
2019-01-06T13:30:40.063Z,14.80
2019-01-06T13:31:40.018Z,14.00
2019-01-06T13:32:39.977Z,13.30
2019-01-06T13:33:39.930Z,13.80
2019-01-06T13:34:39.887Z,15.70
2019-01-06T13:35:39.847Z,16.90
2019-01-06T13:36:39.809Z,12.20
2019-01-06T13:37:39.771Z,12.60
2019-01-06T13:38:39.724Z,14.40
2019-01-06T13:39:39.681Z,15.00
2019-01-06T13:40:39.640Z,12.80
2019-01-06T13:41:39.597Z,12.60
2019-01-06T13:42:39.556Z,13.60
2019-01-06T13:43:39.514Z,12.10
2019-01-06T13:44:39.469Z,12.90
2019-01-06T13:45:39.426Z,12.50